createdAt,value
2018-12-09T00:00:05.792Z,99.90
2018-12-09T00:02:34.330Z,99.90
2018-12-09T00:05:03.624Z,99.90
2018-12-09T00:07:32.273Z,99.90
2018-12-09T00:10:00.673Z,99.90
2018-12-09T00:12:29.054Z,99.90
2018-12-09T00:14:57.416Z,99.90
2018-12-09T00:17:25.816Z,99.90
2018-12-09T00:19:54.467Z,99.90
2018-12-09T00:22:22.839Z,99.90
2018-12-09T00:24:51.221Z,99.90
2018-12-09T00:27:19.614Z,99.90
2018-12-09T00:29:47.983Z,99.90
2018-12-09T00:32:16.672Z,99.60
2018-12-09T00:34:45.081Z,99.90
2018-12-09T00:37:13.458Z,99.90
2018-12-09T00:39:41.856Z,99.90
2018-12-09T00:42:10.230Z,98.90
2018-12-09T00:44:38.611Z,97.50
2018-12-09T00:47:06.984Z,96.90
2018-12-09T00:49:35.370Z,97.30
2018-12-09T00:52:04.159Z,98.40
2018-12-09T00:54:32.571Z,97.70
2018-12-09T00:57:00.958Z,97.10
2018-12-09T00:59:29.329Z,96.20
2018-12-09T01:01:57.851Z,97.20
2018-12-09T01:04:26.227Z,96.60
2018-12-09T01:06:54.723Z,94.80
2018-12-09T01:09:23.139Z,95.00
2018-12-09T01:11:51.503Z,96.70
2018-12-09T01:14:19.862Z,96.40
2018-12-09T01:16:48.245Z,96.60
2018-12-09T01:19:16.766Z,97.30
2018-12-09T01:21:45.432Z,96.10
2018-12-09T01:24:13.832Z,95.60
2018-12-09T01:26:42.264Z,97.10
2018-12-09T01:29:10.926Z,96.50
2018-12-09T01:31:39.316Z,97.30
2018-12-09T01:34:07.682Z,97.60
2018-12-09T01:36:36.109Z,97.10
2018-12-09T01:39:06.313Z,96.90
2018-12-09T01:41:34.694Z,97.40
2018-12-09T01:44:03.192Z,98.70
2018-12-09T01:46:32.026Z,97.20
2018-12-09T01:49:00.466Z,97.30
2018-12-09T01:51:28.843Z,96.30
2018-12-09T01:54:09.183Z,96.40
2018-12-09T01:56:37.917Z,96.70
2018-12-09T01:59:06.427Z,95.10
2018-12-09T02:01:34.834Z,94.30
2018-12-09T02:04:03.245Z,94.70
2018-12-09T02:06:32.160Z,94.70
2018-12-09T02:09:00.684Z,93.90
2018-12-09T02:11:29.204Z,94.40
2018-12-09T02:13:57.594Z,94.90
2018-12-09T02:16:26.129Z,94.10
2018-12-09T02:19:05.831Z,93.70
2018-12-09T02:21:34.231Z,94.70
2018-12-09T02:24:02.606Z,95.50
2018-12-09T02:26:30.979Z,94.70
2018-12-09T02:28:59.381Z,94.70
2018-12-09T02:31:28.063Z,93.90
2018-12-09T02:33:56.442Z,91.20
2018-12-09T02:36:25.218Z,91.70
2018-12-09T02:38:53.641Z,91.70
2018-12-09T02:41:22.020Z,90.60
2018-12-09T02:43:50.551Z,91.70
2018-12-09T02:46:19.001Z,91.10
2018-12-09T02:48:47.801Z,92.40
2018-12-09T02:53:44.980Z,91.80
2018-12-09T02:56:13.721Z,90.40
2018-12-09T02:58:42.428Z,91.00
2018-12-09T03:01:10.855Z,91.50
2018-12-09T03:03:39.213Z,91.50
2018-12-09T03:06:07.581Z,91.40
2018-12-09T03:08:35.990Z,91.50
2018-12-09T03:11:05.255Z,92.80
2018-12-09T03:13:33.835Z,91.70
2018-12-09T03:16:02.313Z,92.80
2018-12-09T03:18:30.669Z,91.90
2018-12-09T03:20:59.054Z,92.60
2018-12-09T03:23:27.448Z,92.10
2018-12-09T03:25:55.820Z,90.60
2018-12-09T03:28:24.210Z,92.60
2018-12-09T03:30:52.604Z,91.30
2018-12-09T03:33:20.992Z,91.10
2018-12-09T03:35:49.373Z,91.30
2018-12-09T03:38:17.784Z,91.10
2018-12-09T03:40:46.298Z,90.50
2018-12-09T03:43:14.672Z,90.60
2018-12-09T03:45:43.757Z,89.90
2018-12-09T03:48:12.294Z,88.90
2018-12-09T03:50:40.680Z,88.70
2018-12-09T03:53:09.089Z,89.50
2018-12-09T03:55:37.720Z,89.80
2018-12-09T03:58:06.267Z,89.20
2018-12-09T04:00:34.770Z,89.50
2018-12-09T04:03:03.146Z,88.50
2018-12-09T04:05:31.620Z,88.70
2018-12-09T04:08:00.038Z,88.20
2018-12-09T04:10:28.528Z,88.10
2018-12-09T04:12:56.891Z,87.60
2018-12-09T04:15:25.340Z,87.90
2018-12-09T04:17:53.725Z,87.50
2018-12-09T04:20:22.721Z,85.90
2018-12-09T04:22:51.136Z,85.40
2018-12-09T04:25:19.509Z,87.00
2018-12-09T04:27:48.073Z,86.20
2018-12-09T04:30:16.482Z,85.90
2018-12-09T04:32:44.968Z,86.00
2018-12-09T04:35:13.532Z,91.50
2018-12-09T04:37:41.924Z,94.40
2018-12-09T04:40:10.696Z,93.20
2018-12-09T04:42:39.082Z,94.70
2018-12-09T04:45:07.648Z,91.50
2018-12-09T04:47:36.033Z,90.00
2018-12-09T04:50:05.744Z,88.80
2018-12-09T04:52:34.151Z,88.60
2018-12-09T04:55:03.258Z,88.10
2018-12-09T04:57:31.995Z,86.50
2018-12-09T05:00:11.832Z,86.20
2018-12-09T05:02:40.235Z,86.10
2018-12-09T05:05:09.160Z,85.30
2018-12-09T05:07:37.838Z,85.90
2018-12-09T05:10:06.778Z,85.50
2018-12-09T05:12:35.157Z,85.70
2018-12-09T05:15:03.685Z,86.80
2018-12-09T05:17:32.123Z,85.10
2018-12-09T05:20:00.505Z,84.50
2018-12-09T05:22:29.066Z,85.70
2018-12-09T05:24:57.472Z,84.90
2018-12-09T05:27:25.863Z,84.50
2018-12-09T05:29:54.510Z,84.40
2018-12-09T05:32:22.903Z,84.50
2018-12-09T05:34:51.555Z,83.90
2018-12-09T05:37:20.138Z,84.40
2018-12-09T05:39:49.064Z,83.60
2018-12-09T05:42:17.462Z,84.00
2018-12-09T05:44:45.862Z,83.70
2018-12-09T05:47:14.250Z,83.40
2018-12-09T05:49:42.626Z,84.10
2018-12-09T05:52:11.553Z,83.70
2018-12-09T05:54:40.112Z,83.90
2018-12-09T05:57:08.480Z,84.20
2018-12-09T05:59:36.871Z,83.80
2018-12-09T06:02:16.370Z,84.00
2018-12-09T06:04:45.027Z,84.00
2018-12-09T06:07:13.413Z,84.70
2018-12-09T06:09:41.783Z,83.90
2018-12-09T06:12:10.457Z,85.40
2018-12-09T06:14:39.475Z,85.10
2018-12-09T06:17:07.853Z,84.90
2018-12-09T06:19:36.490Z,85.10
2018-12-09T06:22:04.863Z,85.50
2018-12-09T06:24:33.221Z,85.10
2018-12-09T06:27:01.688Z,85.90
2018-12-09T06:29:30.342Z,85.40
2018-12-09T06:31:58.717Z,86.00
2018-12-09T06:34:27.109Z,86.30
2018-12-09T06:36:55.807Z,86.60
2018-12-09T06:39:24.218Z,86.40
2018-12-09T06:41:52.616Z,85.40
2018-12-09T06:44:21.009Z,85.70
2018-12-09T06:46:49.515Z,86.30
2018-12-09T06:49:18.420Z,86.80
2018-12-09T06:51:47.275Z,86.00
2018-12-09T06:54:15.676Z,86.20
2018-12-09T06:56:44.373Z,86.00
2018-12-09T06:59:12.743Z,86.20
2018-12-09T07:01:41.538Z,86.10
2018-12-09T07:04:09.923Z,86.60
2018-12-09T07:06:38.305Z,86.00
2018-12-09T07:09:07.209Z,86.30
2018-12-09T07:11:35.643Z,85.90
2018-12-09T07:14:04.658Z,86.10
2018-12-09T07:16:33.020Z,85.70
2018-12-09T07:19:01.407Z,85.70
2018-12-09T07:21:29.858Z,85.60
2018-12-09T07:23:58.244Z,86.20
2018-12-09T07:26:27.163Z,85.60
2018-12-09T07:28:55.550Z,84.80
2018-12-09T07:31:23.948Z,86.30
2018-12-09T07:33:52.361Z,86.20
2018-12-09T07:36:20.961Z,86.80
2018-12-09T07:38:49.650Z,87.20
2018-12-09T07:41:18.056Z,89.50
2018-12-09T07:43:46.414Z,94.20
2018-12-09T07:46:15.244Z,99.10
2018-12-09T07:48:43.801Z,99.90
2018-12-09T07:51:12.804Z,99.90
2018-12-09T07:53:41.181Z,99.90
2018-12-09T07:56:09.576Z,99.90
2018-12-09T07:58:38.259Z,99.90
2018-12-09T08:01:06.639Z,99.90
2018-12-09T08:03:35.238Z,99.90
2018-12-09T08:06:03.896Z,99.90
2018-12-09T08:08:32.603Z,99.90
2018-12-09T08:11:01.225Z,99.90
2018-12-09T08:13:29.605Z,99.90
2018-12-09T08:15:57.972Z,99.90
2018-12-09T08:18:26.455Z,99.90
2018-12-09T08:20:54.817Z,99.90
2018-12-09T08:23:23.251Z,99.90
2018-12-09T08:25:51.897Z,99.90
2018-12-09T08:28:20.566Z,99.90
2018-12-09T08:30:48.955Z,99.90
2018-12-09T08:33:17.429Z,99.90
2018-12-09T08:35:45.789Z,99.90
2018-12-09T08:38:14.161Z,99.90
2018-12-09T08:40:42.558Z,99.90
2018-12-09T08:43:10.940Z,99.90
2018-12-09T08:45:39.500Z,99.90
2018-12-09T08:48:07.909Z,99.90
2018-12-09T08:50:36.325Z,99.90
2018-12-09T08:53:04.856Z,99.90
2018-12-09T08:55:33.703Z,99.90
2018-12-09T08:58:02.084Z,99.90
2018-12-09T09:00:30.874Z,99.90
2018-12-09T09:02:59.284Z,99.90
2018-12-09T09:05:27.788Z,99.90
2018-12-09T09:07:56.474Z,99.90
2018-12-09T09:10:24.890Z,99.90
2018-12-09T09:12:53.261Z,99.90
2018-12-09T09:15:21.627Z,99.90
2018-12-09T09:17:50.046Z,99.90
2018-12-09T09:20:18.434Z,99.90
2018-12-09T09:22:46.981Z,99.90
2018-12-09T09:25:15.733Z,99.90
2018-12-09T09:27:44.103Z,99.90
2018-12-09T09:30:12.481Z,99.90
2018-12-09T09:32:40.991Z,99.90
2018-12-09T09:35:09.803Z,99.90
2018-12-09T09:37:38.554Z,99.90
2018-12-09T09:40:08.479Z,99.90
2018-12-09T09:42:36.893Z,99.90
2018-12-09T09:45:06.683Z,99.90
2018-12-09T09:47:35.132Z,99.90
2018-12-09T09:50:04.051Z,99.90
2018-12-09T09:52:32.548Z,99.90
2018-12-09T09:55:00.995Z,99.90
2018-12-09T09:57:29.632Z,99.90
2018-12-09T09:59:58.280Z,99.90
2018-12-09T10:02:26.990Z,99.90
2018-12-09T10:04:55.397Z,99.90
2018-12-09T10:07:24.113Z,99.90
2018-12-09T10:09:52.531Z,99.90
2018-12-09T10:12:21.158Z,99.90
2018-12-09T10:14:49.846Z,99.90
2018-12-09T10:17:18.484Z,99.90
2018-12-09T10:19:46.848Z,99.90
2018-12-09T10:22:15.212Z,99.90
2018-12-09T10:24:43.648Z,99.90
2018-12-09T10:27:12.040Z,99.90
2018-12-09T10:29:40.392Z,99.90
2018-12-09T10:32:08.788Z,99.90
2018-12-09T10:34:38.946Z,99.90
2018-12-09T10:37:07.584Z,99.90
2018-12-09T10:39:36.032Z,99.90
2018-12-09T10:42:04.879Z,99.90
2018-12-09T10:44:33.413Z,99.90
2018-12-09T10:47:01.829Z,99.90
2018-12-09T10:49:30.203Z,99.90
2018-12-09T10:51:58.571Z,99.90
2018-12-09T10:54:26.957Z,99.90
2018-12-09T10:56:55.339Z,99.90
2018-12-09T10:59:23.725Z,99.90
2018-12-09T11:01:55.713Z,99.90
2018-12-09T11:04:24.233Z,99.90
2018-12-09T11:06:52.611Z,99.90
2018-12-09T11:09:21.224Z,99.90
2018-12-09T11:11:49.639Z,99.90
2018-12-09T11:14:17.999Z,99.90
2018-12-09T11:16:46.696Z,99.90
2018-12-09T11:19:15.077Z,99.90
2018-12-09T11:21:43.565Z,99.90
2018-12-09T11:24:12.019Z,99.90
2018-12-09T11:26:40.391Z,99.90
2018-12-09T11:29:08.744Z,99.90
2018-12-09T11:31:37.302Z,99.90
2018-12-09T11:34:05.981Z,99.90
2018-12-09T11:36:34.353Z,99.90
2018-12-09T11:39:03.652Z,99.90
2018-12-09T11:41:32.038Z,99.90
2018-12-09T11:44:00.395Z,99.90
2018-12-09T11:46:28.810Z,99.90
2018-12-09T11:48:57.211Z,99.90
2018-12-09T11:51:25.864Z,99.90
2018-12-09T11:53:54.317Z,99.90
2018-12-09T11:56:22.878Z,99.90
2018-12-09T11:58:51.308Z,99.90
2018-12-09T12:01:19.714Z,99.90
2018-12-09T12:03:48.137Z,99.90
2018-12-09T12:06:16.529Z,99.90
2018-12-09T12:08:45.033Z,99.90
2018-12-09T12:11:13.640Z,99.90
2018-12-09T12:13:42.025Z,99.90
2018-12-09T12:16:10.421Z,99.90
2018-12-09T12:18:38.873Z,99.90
2018-12-09T12:21:07.269Z,99.90
2018-12-09T12:23:35.641Z,99.90
2018-12-09T12:26:04.780Z,99.90
2018-12-09T12:28:33.375Z,99.90
2018-12-09T12:31:01.812Z,99.90
2018-12-09T12:33:30.175Z,99.90
2018-12-09T12:35:58.548Z,99.90
2018-12-09T12:38:27.854Z,99.90
2018-12-09T12:40:56.230Z,99.90
2018-12-09T12:43:25.040Z,99.90
2018-12-09T12:45:53.474Z,99.90
2018-12-09T12:48:22.016Z,99.90
2018-12-09T12:50:50.507Z,99.90
2018-12-09T12:53:18.916Z,99.90
2018-12-09T12:55:47.287Z,99.90
2018-12-09T12:58:15.683Z,99.90
2018-12-09T13:00:44.073Z,99.90
2018-12-09T13:03:12.438Z,99.90
2018-12-09T13:05:41.197Z,99.90
2018-12-09T13:08:09.986Z,99.90
2018-12-09T13:10:38.390Z,99.90
2018-12-09T13:13:06.754Z,99.90
2018-12-09T13:15:35.424Z,99.90
2018-12-09T13:18:03.934Z,99.90
2018-12-09T13:20:32.439Z,99.90
2018-12-09T13:23:01.583Z,99.90
2018-12-09T13:25:30.735Z,99.90
2018-12-09T13:27:59.605Z,99.90
2018-12-09T13:30:27.999Z,99.90
2018-12-09T13:32:56.379Z,99.90
2018-12-09T13:35:24.961Z,99.90
2018-12-09T13:37:53.370Z,99.90
2018-12-09T13:40:21.741Z,99.90
2018-12-09T13:42:50.104Z,99.90
2018-12-09T13:45:18.508Z,99.90
2018-12-09T13:47:46.889Z,99.90
2018-12-09T13:50:15.899Z,99.90
2018-12-09T13:52:44.485Z,99.90
2018-12-09T13:55:12.937Z,99.90
2018-12-09T13:57:41.490Z,99.90
2018-12-09T14:00:12.813Z,99.90
2018-12-09T14:02:41.195Z,99.90
2018-12-09T14:05:09.802Z,99.90
2018-12-09T14:07:38.262Z,99.90
2018-12-09T14:10:07.069Z,99.90
2018-12-09T14:12:35.757Z,99.90
2018-12-09T14:15:05.047Z,99.90
2018-12-09T14:17:33.418Z,99.90
2018-12-09T14:20:01.906Z,99.90
2018-12-09T14:22:30.314Z,99.90
2018-12-09T14:24:58.924Z,99.90
2018-12-09T14:27:27.445Z,99.90
2018-12-09T14:29:55.912Z,99.90
2018-12-09T14:32:24.334Z,99.90
2018-12-09T14:34:52.714Z,99.90
2018-12-09T14:37:21.477Z,99.90
2018-12-09T14:39:49.856Z,99.90
2018-12-09T14:42:18.213Z,99.90
2018-12-09T14:44:46.611Z,99.90
2018-12-09T14:47:14.982Z,99.90
2018-12-09T14:49:43.341Z,99.90
2018-12-09T14:52:11.749Z,99.90
2018-12-09T14:54:40.125Z,99.90
2018-12-09T14:57:08.494Z,99.90
2018-12-09T14:59:36.892Z,99.90
2018-12-09T15:02:05.387Z,99.90
2018-12-09T15:04:33.925Z,99.90
2018-12-09T15:07:02.564Z,99.90
2018-12-09T15:09:31.562Z,99.90
2018-12-09T15:12:00.481Z,99.90
2018-12-09T15:14:28.885Z,99.90
2018-12-09T15:16:57.254Z,99.90
2018-12-09T15:19:25.662Z,99.90
2018-12-09T15:21:54.084Z,99.90
2018-12-09T15:24:22.452Z,99.90
2018-12-09T15:26:50.808Z,99.90
2018-12-09T15:29:19.205Z,99.90
2018-12-09T15:31:47.816Z,99.90
2018-12-09T15:34:16.223Z,99.90
2018-12-09T15:36:44.619Z,99.90
2018-12-09T15:39:13.005Z,99.90
2018-12-09T15:41:41.378Z,99.90
2018-12-09T15:44:09.840Z,99.90
2018-12-09T15:46:38.211Z,99.90
2018-12-09T15:49:06.722Z,99.90
2018-12-09T15:51:35.177Z,99.90
2018-12-09T15:54:03.655Z,99.90
2018-12-09T15:56:32.033Z,99.90
2018-12-09T15:59:00.464Z,99.90
2018-12-09T16:01:29.117Z,99.90
2018-12-09T16:03:57.846Z,99.90
2018-12-09T16:06:26.510Z,99.90
2018-12-09T16:08:54.884Z,99.90
2018-12-09T16:11:23.559Z,99.90
2018-12-09T16:13:52.216Z,99.90
2018-12-09T16:16:20.600Z,99.90
2018-12-09T16:18:48.993Z,99.90
2018-12-09T16:21:17.715Z,99.90
2018-12-09T16:23:46.265Z,99.90
2018-12-09T16:26:15.111Z,99.90
2018-12-09T16:28:43.524Z,99.90
2018-12-09T16:31:12.092Z,99.90
2018-12-09T16:33:40.769Z,99.90
2018-12-09T16:36:09.189Z,99.90
2018-12-09T16:38:37.547Z,99.90
2018-12-09T16:41:05.954Z,99.90
2018-12-09T16:43:34.335Z,99.90
2018-12-09T16:46:03.306Z,99.90
2018-12-09T16:48:31.676Z,99.90
2018-12-09T16:51:00.089Z,99.90
2018-12-09T16:53:28.485Z,99.90
2018-12-09T16:55:57.480Z,99.90
2018-12-09T16:58:26.143Z,99.90
2018-12-09T17:00:54.528Z,99.90
2018-12-09T17:03:22.905Z,99.90
2018-12-09T17:05:51.315Z,99.90
2018-12-09T17:08:19.686Z,99.90
2018-12-09T17:10:48.036Z,99.90
2018-12-09T17:13:16.446Z,99.90
2018-12-09T17:15:44.818Z,99.90
2018-12-09T17:18:13.225Z,99.90
2018-12-09T17:20:41.721Z,99.90
2018-12-09T17:23:10.102Z,99.90
2018-12-09T17:25:38.487Z,99.90
2018-12-09T17:28:07.052Z,99.90
2018-12-09T17:30:35.441Z,99.90
2018-12-09T17:33:03.911Z,99.90
2018-12-09T17:35:32.314Z,99.90
2018-12-09T17:38:00.890Z,99.90
2018-12-09T17:40:29.278Z,99.90
2018-12-09T17:42:57.975Z,99.90
2018-12-09T17:45:26.368Z,99.90
2018-12-09T17:47:54.749Z,99.90
2018-12-09T17:50:23.184Z,99.90
2018-12-09T17:52:51.577Z,99.90
2018-12-09T17:55:19.970Z,99.90
2018-12-09T17:57:48.383Z,99.90
2018-12-09T18:00:16.779Z,99.90
2018-12-09T18:02:45.192Z,99.90
2018-12-09T18:05:13.730Z,99.90
2018-12-09T18:07:42.124Z,99.90
2018-12-09T18:10:10.623Z,99.90
2018-12-09T18:12:47.672Z,99.90
2018-12-09T18:15:13.952Z,99.90
2018-12-09T18:17:42.610Z,99.90
2018-12-09T18:20:11.526Z,99.90
2018-12-09T18:22:40.026Z,99.90
2018-12-09T18:25:08.476Z,99.90
2018-12-09T18:27:36.857Z,99.90
2018-12-09T18:30:06.102Z,99.90
2018-12-09T18:32:34.782Z,99.90
2018-12-09T18:35:04.202Z,99.90
2018-12-09T18:37:33.440Z,99.90
2018-12-09T18:40:01.978Z,99.90
2018-12-09T18:42:30.632Z,99.90
2018-12-09T18:44:59.312Z,99.90
2018-12-09T18:47:28.130Z,99.90
2018-12-09T18:49:56.541Z,99.90
2018-12-09T18:52:24.989Z,99.90
2018-12-09T18:54:53.385Z,99.90
2018-12-09T18:57:21.909Z,99.90
2018-12-09T18:59:50.867Z,99.90
2018-12-09T19:02:19.278Z,99.90
2018-12-09T19:04:48.859Z,99.90
2018-12-09T19:07:17.374Z,99.90
2018-12-09T19:09:45.798Z,99.90
2018-12-09T19:12:14.348Z,99.90
2018-12-09T19:14:42.726Z,99.90
2018-12-09T19:17:11.137Z,99.90
2018-12-09T19:19:39.829Z,99.90
2018-12-09T19:22:08.515Z,99.90
2018-12-09T19:24:36.946Z,99.90
2018-12-09T19:27:05.508Z,99.90
2018-12-09T19:29:34.370Z,99.90
2018-12-09T19:32:02.828Z,99.90
2018-12-09T19:34:31.218Z,99.90
2018-12-09T19:36:59.936Z,99.90
2018-12-09T19:39:28.331Z,99.90
2018-12-09T19:41:56.737Z,99.90
2018-12-09T19:44:25.299Z,99.90
2018-12-09T19:46:53.723Z,99.90
2018-12-09T19:49:22.145Z,99.90
2018-12-09T19:51:50.530Z,99.90
2018-12-09T19:54:19.061Z,99.90
2018-12-09T19:56:47.522Z,99.90
2018-12-09T19:59:16.010Z,99.90
2018-12-09T20:01:44.421Z,99.90
2018-12-09T20:04:13.065Z,99.90
2018-12-09T20:06:41.458Z,99.90
2018-12-09T20:09:10.236Z,99.90
2018-12-09T20:11:39.077Z,99.90
2018-12-09T20:14:07.812Z,99.90
2018-12-09T20:16:36.357Z,99.90
2018-12-09T20:19:04.746Z,99.90
2018-12-09T20:21:33.253Z,99.90
2018-12-09T20:24:01.950Z,99.90
2018-12-09T20:26:30.366Z,99.90
2018-12-09T20:28:58.735Z,99.90
2018-12-09T20:31:27.456Z,99.90
2018-12-09T20:33:56.095Z,99.90
2018-12-09T20:36:24.461Z,99.90
2018-12-09T20:38:53.201Z,99.90
2018-12-09T20:41:21.836Z,99.90
2018-12-09T20:43:50.215Z,99.90
2018-12-09T20:46:18.612Z,99.90
2018-12-09T20:48:47.639Z,99.90
2018-12-09T20:51:16.248Z,99.90
2018-12-09T20:53:44.630Z,99.90
2018-12-09T20:56:13.112Z,99.90
2018-12-09T20:58:41.715Z,99.90
2018-12-09T21:01:10.117Z,99.90
2018-12-09T21:03:38.520Z,99.90
2018-12-09T21:06:07.183Z,99.90
2018-12-09T21:08:35.992Z,99.90
2018-12-09T21:11:04.706Z,99.90
2018-12-09T21:13:33.082Z,99.90
2018-12-09T21:16:01.658Z,99.90
2018-12-09T21:18:30.024Z,99.90
2018-12-09T21:20:58.403Z,99.90
2018-12-09T21:23:26.823Z,99.90
2018-12-09T21:25:55.724Z,99.90
2018-12-09T21:28:24.437Z,99.90
2018-12-09T21:30:53.069Z,99.90
2018-12-09T21:33:21.759Z,99.90
2018-12-09T21:35:50.143Z,99.90
2018-12-09T21:38:18.632Z,99.90
2018-12-09T21:40:47.278Z,99.90
2018-12-09T21:43:15.694Z,99.90
2018-12-09T21:45:44.091Z,99.90
2018-12-09T21:48:12.575Z,99.90
2018-12-09T21:50:41.370Z,99.90
2018-12-09T21:53:09.761Z,99.90
2018-12-09T21:55:38.231Z,99.90
2018-12-09T21:58:06.675Z,99.90
2018-12-09T22:00:35.050Z,99.90
2018-12-09T22:03:03.417Z,99.90
2018-12-09T22:05:32.576Z,99.90
2018-12-09T22:08:01.041Z,99.90
2018-12-09T22:10:29.422Z,99.90
2018-12-09T22:12:57.917Z,99.90
2018-12-09T22:15:26.874Z,99.90
2018-12-09T22:17:55.423Z,99.90
2018-12-09T22:20:23.916Z,99.90
2018-12-09T22:22:52.474Z,99.90
2018-12-09T22:25:20.832Z,99.90
2018-12-09T22:27:49.224Z,99.90
2018-12-09T22:30:17.641Z,99.90
2018-12-09T22:32:46.288Z,99.90
2018-12-09T22:35:14.650Z,99.90
2018-12-09T22:37:43.108Z,99.90
2018-12-09T22:40:11.857Z,99.90
2018-12-09T22:42:40.729Z,99.90
2018-12-09T22:45:09.230Z,99.90
2018-12-09T22:47:37.595Z,99.90
2018-12-09T22:50:06.629Z,99.90
2018-12-09T22:52:35.005Z,99.90
2018-12-09T22:55:03.492Z,99.90
2018-12-09T22:57:31.867Z,99.90
2018-12-09T23:00:00.281Z,99.90
2018-12-09T23:02:34.214Z,99.90
2018-12-09T23:05:02.766Z,99.90
2018-12-09T23:07:36.921Z,99.90
2018-12-09T23:10:05.514Z,99.90
2018-12-09T23:12:33.872Z,99.90
2018-12-09T23:15:02.220Z,99.90
2018-12-09T23:17:30.706Z,99.90
2018-12-09T23:19:59.321Z,99.90
2018-12-09T23:22:27.696Z,99.90
2018-12-09T23:24:56.063Z,99.90
2018-12-09T23:27:24.492Z,99.90
2018-12-09T23:29:53.463Z,99.90
2018-12-09T23:32:21.841Z,99.90
2018-12-09T23:34:50.212Z,99.90
2018-12-09T23:37:18.624Z,99.90
2018-12-09T23:39:47.017Z,99.90
2018-12-09T23:42:15.392Z,99.90
2018-12-09T23:44:44.046Z,99.90
2018-12-09T23:47:12.466Z,99.90
2018-12-09T23:49:40.819Z,99.90
2018-12-09T23:52:09.179Z,99.90
2018-12-09T23:54:37.581Z,99.90
2018-12-09T23:57:05.940Z,99.90
2018-12-09T23:59:34.304Z,99.90
